Pagina principală
METAR-TAF:

METAR-TAF

Aeroporturi :

Smith Field

Siloam Springs, Arkansas, Statele Unite ale Americii

Latitudine: 36-12N, longitudine: 094-29W, elevație: 300 m

Observații meteo curente

Raportul a fost făcut în urmă cu 50 de minute, la 21:56 UTC
Vânt 14 kt de la Sud/Sud-vest
Temperatură 33°C
Umiditate 49%
Presiune 1015 hPa
Vizibilitate: 16.1 km
Cer senin

METAR: KSLG 222156Z AUTO 20014KT 10SM CLR 33/21 A2998 RMK AO2 SLP138 T03280211 PNO $

Ora: 17:46 (22:46 UTC)


TAF: lipsă

Observații și prognoze meteo pentru peste 4.000 de aeroporturi (rapoarte METAR și TAF).

Stațiile disponibile sunt reprezentate pe hartă prin puncte galbene și roșii.

Țineți indicatorul mouse-ului pe punctul dorit pentru a vedea denumirea stației.

Apoi, faceți clic pentru a vedea observațiile și prognozele meteorologice.

Pentru a schimba harta: Pentru mărire, faceți clic pe butoanele verzi cu cruce neagră; pentru micșorare, pe butonul verde cu o liniuță; pentru hărți învecinate, pe săgețile verzi.


METAR-TAF: